Time;durP1;ratioP1;P1;durP2;ratioP2;P2;SDS_P1;SDS_P2;PMS_P1;PMS_P2;Temp;Humidity;BMP_temperature;BMP_pressure;BME280_temperature;BME280_humidity;BME280_pressure;Samples;Min_cycle;Max_cycle;Signal;HPM_P1;HPM_P2
2024/01/16 00:00:27;;;;;;;1.38;1.27;;;-1.30;98.70;;;;;;5055020;28;20291;-74
2024/01/16 00:02:54;;;;;;;2.67;2.30;;;-1.40;97.90;;;;;;5057976;28;20206;-74
2024/01/16 00:05:20;;;;;;;4.80;2.33;;;-1.50;97.90;;;;;;5046253;28;20300;-74
2024/01/16 00:07:47;;;;;;;3.50;3.17;;;-1.40;98.50;;;;;;5047014;28;20214;-74
2024/01/16 00:10:14;;;;;;;3.95;2.60;;;-1.40;98.60;;;;;;5050675;28;20226;-74
2024/01/16 00:12:41;;;;;;;1.77;1.55;;;-1.20;98.50;;;;;;5049260;28;20223;-74
2024/01/16 00:15:09;;;;;;;1.65;1.55;;;-1.30;98.00;;;;;;5046991;28;20625;-74
2024/01/16 00:17:37;;;;;;;3.17;2.53;;;-1.30;98.30;;;;;;5050365;28;20211;-74
2024/01/16 00:20:06;;;;;;;2.55;2.30;;;-1.30;97.90;;;;;;5047432;28;20557;-73
2024/01/16 00:22:33;;;;;;;2.15;1.80;;;-1.40;97.90;;;;;;5051039;28;20208;-73
2024/01/16 00:25:00;;;;;;;4.70;2.08;;;-1.40;97.90;;;;;;5039620;28;20913;-73
2024/01/16 00:27:27;;;;;;;2.88;2.67;;;-1.40;98.20;;;;;;5045202;28;20668;-73
2024/01/16 00:29:53;;;;;;;2.65;2.45;;;-1.50;97.80;;;;;;5043717;28;20316;-74
2024/01/16 00:32:20;;;;;;;1.85;1.67;;;-1.50;98.00;;;;;;5044766;28;20214;-74
2024/01/16 00:34:48;;;;;;;1.33;1.23;;;-1.50;98.10;;;;;;5048953;28;20206;-74
2024/01/16 00:37:15;;;;;;;2.58;1.90;;;-1.50;98.20;;;;;;5043748;28;20327;-74
2024/01/16 00:39:42;;;;;;;3.85;1.85;;;-1.70;99.90;;;;;;5039746;28;20209;-74
2024/01/16 00:42:09;;;;;;;1.77;1.67;;;-1.60;98.00;;;;;;5061236;28;20205;-74
2024/01/16 00:44:35;;;;;;;1.85;1.67;;;-1.60;97.90;;;;;;5056293;28;20196;-74
2024/01/16 00:47:02;;;;;;;2.95;1.70;;;-1.60;98.00;;;;;;5048317;28;20233;-74
2024/01/16 00:49:29;;;;;;;2.50;2.30;;;-1.60;98.00;;;;;;5052066;28;20220;-74
2024/01/16 00:51:57;;;;;;;1.35;1.20;;;-1.60;97.80;;;;;;5055883;28;20200;-74
2024/01/16 00:54:24;;;;;;;2.33;1.50;;;-1.60;98.00;;;;;;5054592;28;20197;-74
2024/01/16 00:56:55;;;;;;;2.30;2.10;;;-1.50;98.10;;;;;;5054329;28;20209;-74
2024/01/16 00:59:22;;;;;;;1.58;1.48;;;-1.50;98.00;;;;;;5053369;28;20196;-74
2024/01/16 01:01:48;;;;;;;2.03;1.80;;;-1.50;97.70;;;;;;5058657;28;20207;-74
2024/01/16 01:04:15;;;;;;;4.63;2.67;;;-1.50;97.80;;;;;;5055179;28;20751;-74
2024/01/16 01:06:42;;;;;;;2.25;1.80;;;-1.50;97.80;;;;;;5053073;28;20639;-74
2024/01/16 01:09:11;;;;;;;1.95;1.85;;;-1.50;97.90;;;;;;5048427;28;20312;-74
2024/01/16 01:11:38;;;;;;;1.23;1.13;;;-1.50;97.60;;;;;;5054559;27;20200;-74
2024/01/16 01:14:05;;;;;;;1.80;1.23;;;-1.50;97.80;;;;;;5050594;28;20228;-74
2024/01/16 01:16:32;;;;;;;2.30;1.85;;;-1.60;97.80;;;;;;5041338;28;20644;-74
2024/01/16 01:18:59;;;;;;;1.27;1.17;;;-1.50;97.80;;;;;;5051191;28;20617;-74
2024/01/16 01:21:25;;;;;;;5.22;1.60;;;-1.50;98.10;;;;;;5044926;28;20205;-74
2024/01/16 01:23:52;;;;;;;1.25;1.25;;;-1.50;97.90;;;;;;5049467;28;20291;-74
2024/01/16 01:26:20;;;;;;;3.50;1.88;;;-1.40;98.00;;;;;;5037381;28;20228;-74
2024/01/16 01:28:47;;;;;;;3.60;3.17;;;-1.40;98.00;;;;;;5046615;28;20283;-74
2024/01/16 01:31:14;;;;;;;2.08;1.88;;;-1.40;98.10;;;;;;5042290;28;20231;-74
2024/01/16 01:33:42;;;;;;;1.80;1.58;;;-1.40;98.00;;;;;;5046298;28;20205;-73
2024/01/16 01:36:09;;;;;;;1.65;1.55;;;-1.40;97.60;;;;;;5046190;27;20211;-74
2024/01/16 01:38:36;;;;;;;2.15;1.42;;;-1.40;97.50;;;;;;5046664;27;20307;-74
2024/01/16 01:41:03;;;;;;;4.10;2.45;;;-1.40;97.50;;;;;;5063246;28;20933;-74
2024/01/16 01:43:31;;;;;;;9.23;2.80;;;-1.30;97.80;;;;;;5054742;27;20201;-73
2024/01/16 01:46:10;;;;;;;1.05;1.05;;;-1.40;97.80;;;;;;5050929;28;20576;-74
2024/01/16 01:48:38;;;;;;;1.98;1.65;;;-1.40;97.90;;;;;;5058962;28;20212;-73
2024/01/16 01:51:05;;;;;;;2.28;1.35;;;-1.30;97.80;;;;;;5055509;27;20307;-74
2024/01/16 01:53:33;;;;;;;2.42;1.25;;;-1.30;97.80;;;;;;5060592;28;20552;-74
2024/01/16 01:56:05;;;;;;;6.47;2.83;;;-1.30;97.60;;;;;;5049631;28;20556;-74
2024/01/16 01:58:34;;;;;;;2.67;2.10;;;-1.30;97.60;;;;;;5060349;28;20226;-74
2024/01/16 02:01:03;;;;;;;2.00;1.90;;;-1.30;97.60;;;;;;5055743;28;20197;-74
2024/01/16 02:03:33;;;;;;;2.47;1.10;;;-1.30;97.60;;;;;;5058160;28;20322;-74
2024/01/16 02:06:01;;;;;;;2.28;2.08;;;-1.30;97.50;;;;;;5050885;28;20219;-74
2024/01/16 02:08:28;;;;;;;1.88;1.70;;;-1.30;97.40;;;;;;5053092;27;20581;-74
2024/01/16 02:10:55;;;;;;;1.85;1.75;;;-1.30;97.80;;;;;;5050779;28;20224;-74
2024/01/16 02:13:23;;;;;;;4.40;2.17;;;-1.30;97.90;;;;;;5053379;28;20228;-74
2024/01/16 02:15:52;;;;;;;2.17;1.98;;;-1.40;97.80;;;;;;5050518;28;20216;-73
2024/01/16 02:18:20;;;;;;;1.20;1.08;;;-1.40;97.60;;;;;;5050352;28;20216;-73
2024/01/16 02:20:48;;;;;;;6.72;1.60;;;-1.50;97.50;;;;;;5046516;28;20243;-73
2024/01/16 02:23:16;;;;;;;3.10;2.90;;;-1.50;97.50;;;;;;5047232;28;20190;-73
2024/01/16 02:25:45;;;;;;;2.50;2.30;;;-1.50;97.40;;;;;;5047244;28;20199;-73
2024/01/16 02:28:15;;;;;;;2.50;1.60;;;-1.50;97.40;;;;;;5044864;28;20242;-74
2024/01/16 02:30:43;;;;;;;1.05;0.95;;;-1.60;97.70;;;;;;5046919;28;20276;-74
2024/01/16 02:33:11;;;;;;;2.03;1.92;;;-1.50;97.50;;;;;;5045077;28;20556;-74
2024/01/16 02:35:39;;;;;;;1.90;1.65;;;-1.60;97.40;;;;;;5042082;28;20204;-74
2024/01/16 02:38:06;;;;;;;1.58;1.48;;;-1.70;97.50;;;;;;5046186;27;20740;-74
2024/01/16 02:40:34;;;;;;;2.17;1.98;;;-1.70;97.60;;;;;;5047349;28;20236;-73
2024/01/16 02:43:02;;;;;;;2.22;2.05;;;-1.80;97.50;;;;;;5052761;28;20207;-74
2024/01/16 02:45:30;;;;;;;4.72;2.00;;;-1.80;97.60;;;;;;5042806;28;20565;-74
2024/01/16 02:47:58;;;;;;;5.28;1.67;;;-1.80;97.70;;;;;;5061979;28;20635;-74
2024/01/16 02:50:26;;;;;;;3.58;2.25;;;-1.80;97.80;;;;;;5051672;28;20219;-74
2024/01/16 02:52:55;;;;;;;1.83;1.30;;;-1.90;97.80;;;;;;5048024;27;20303;-73
2024/01/16 02:55:22;;;;;;;1.52;1.17;;;-1.80;98.00;;;;;;5046066;28;20207;-73
2024/01/16 02:57:49;;;;;;;2.70;1.98;;;-1.80;97.90;;;;;;5046005;28;20203;-74
2024/01/16 03:00:18;;;;;;;2.38;1.52;;;-1.80;98.00;;;;;;5060352;28;20208;-75
2024/01/16 03:02:45;;;;;;;3.25;2.05;;;-1.80;97.70;;;;;;5056635;28;20215;-74
2024/01/16 03:05:12;;;;;;;1.80;1.50;;;-1.80;98.10;;;;;;5050061;28;20254;-74
2024/01/16 03:07:39;;;;;;;5.32;1.52;;;-1.80;98.00;;;;;;5055906;28;20594;-74
2024/01/16 03:10:06;;;;;;;2.05;1.48;;;-1.90;97.70;;;;;;5050678;27;20477;-74
2024/01/16 03:12:33;;;;;;;2.13;1.92;;;-1.90;97.70;;;;;;5046176;27;20228;-74
2024/01/16 03:15:00;;;;;;;18.83;2.13;;;-1.90;97.80;;;;;;5054802;28;20659;-74
2024/01/16 03:17:29;;;;;;;5.20;4.10;;;-1.90;97.80;;;;;;5053140;28;20209;-74
2024/01/16 03:19:57;;;;;;;2.53;2.35;;;-2.00;97.90;;;;;;5054310;27;20205;-74
2024/01/16 03:22:25;;;;;;;2.15;1.38;;;-2.00;97.90;;;;;;5052063;28;20200;-74
2024/01/16 03:24:52;;;;;;;2.63;2.45;;;-2.10;97.80;;;;;;5048703;28;20204;-74
2024/01/16 03:27:19;;;;;;;1.15;1.05;;;-2.10;97.80;;;;;;5046594;28;20261;-74
2024/01/16 03:29:46;;;;;;;3.03;2.63;;;-2.10;97.80;;;;;;5049269;28;20555;-74
2024/01/16 03:32:14;;;;;;;1.92;1.58;;;-2.60;99.90;;;;;;5047634;28;20205;-74
2024/01/16 03:34:42;;;;;;;2.50;2.13;;;-2.30;97.80;;;;;;5052174;28;20204;-74
2024/01/16 03:37:11;;;;;;;2.67;2.00;;;-2.30;97.80;;;;;;5092440;27;20200;-74
2024/01/16 03:39:38;;;;;;;1.58;1.48;;;-2.20;97.80;;;;;;5094419;27;20569;-74
2024/01/16 03:42:07;;;;;;;4.53;1.90;;;-2.20;97.90;;;;;;5089505;27;20299;-74
2024/01/16 03:44:38;;;;;;;2.25;2.05;;;-2.30;97.70;;;;;;5099644;27;20228;-74
2024/01/16 03:47:07;;;;;;;1.70;1.58;;;-2.40;97.70;;;;;;5091582;27;20283;-75
2024/01/16 03:49:35;;;;;;;2.88;2.20;;;-2.40;97.50;;;;;;5089879;27;20200;-74
2024/01/16 03:52:04;;;;;;;3.35;1.80;;;-2.40;97.80;;;;;;5047711;27;20319;-74
2024/01/16 03:54:31;;;;;;;2.45;1.92;;;-2.40;97.90;;;;;;5040940;27;20569;-74
2024/01/16 03:56:59;;;;;;;3.10;1.70;;;-2.40;97.80;;;;;;5035856;28;20208;-74
2024/01/16 03:59:25;;;;;;;2.17;1.70;;;-2.50;97.60;;;;;;5063524;28;20555;-74
2024/01/16 04:01:52;;;;;;;2.80;1.35;;;-2.60;97.80;;;;;;5055084;28;20576;-74
2024/01/16 04:04:19;;;;;;;1.50;1.40;;;-2.50;97.90;;;;;;5052561;28;20208;-74
2024/01/16 04:06:47;;;;;;;2.42;2.05;;;-2.60;97.80;;;;;;5053365;28;20208;-74
2024/01/16 04:09:15;;;;;;;2.65;2.55;;;-2.60;97.90;;;;;;5063395;27;20204;-74
2024/01/16 04:11:42;;;;;;;1.77;1.67;;;-2.70;97.80;;;;;;5053762;28;20229;-74
2024/01/16 04:14:09;;;;;;;1.65;1.55;;;-2.80;97.90;;;;;;5069173;27;20215;-74
2024/01/16 04:16:35;;;;;;;3.38;2.95;;;-2.80;98.10;;;;;;5066878;27;20199;-74
2024/01/16 04:19:03;;;;;;;1.05;1.05;;;-2.70;98.00;;;;;;5056179;28;20291;-74
2024/01/16 04:21:30;;;;;;;1.10;0.98;;;-2.90;97.70;;;;;;5053364;27;20192;-74
2024/01/16 04:23:56;;;;;;;3.20;2.30;;;-2.90;97.90;;;;;;5053380;28;20201;-74
2024/01/16 04:26:25;;;;;;;0.90;0.90;;;-3.00;98.00;;;;;;5051985;28;20620;-74
2024/01/16 04:28:51;;;;;;;3.53;1.30;;;-3.00;98.00;;;;;;5048713;28;20211;-74
2024/01/16 04:31:19;;;;;;;3.20;1.50;;;-3.00;98.20;;;;;;5047121;28;20333;-74
2024/01/16 04:33:46;;;;;;;1.70;1.60;;;-3.00;98.10;;;;;;5054101;27;20281;-74
2024/01/16 04:36:12;;;;;;;0.88;0.88;;;-3.10;99.90;;;;;;5054845;27;20211;-74
2024/01/16 04:38:39;;;;;;;1.55;1.45;;;-3.10;98.20;;;;;;5065440;27;20247;-74
2024/01/16 04:41:06;;;;;;;1.30;1.20;;;-3.10;98.20;;;;;;5051938;28;20219;-74
2024/01/16 04:43:34;;;;;;;2.58;2.10;;;-3.10;98.30;;;;;;5053457;28;20210;-74
2024/01/16 04:46:01;;;;;;;2.25;2.05;;;-3.00;98.30;;;;;;5040145;28;20224;-74
2024/01/16 04:48:28;;;;;;;2.92;1.63;;;-3.00;98.20;;;;;;5043318;28;20718;-74
2024/01/16 04:50:55;;;;;;;2.45;1.02;;;-3.00;98.20;;;;;;5051667;27;20229;-74
2024/01/16 04:53:21;;;;;;;1.40;1.35;;;-2.90;98.20;;;;;;5032847;28;20213;-75
2024/01/16 04:55:48;;;;;;;2.40;1.92;;;-2.90;98.10;;;;;;5036878;28;20212;-74
2024/01/16 04:58:15;;;;;;;2.80;1.58;;;-3.10;97.90;;;;;;5038250;28;20208;-74
2024/01/16 05:00:43;;;;;;;1.83;1.75;;;-3.10;98.00;;;;;;5093541;27;20207;-74
2024/01/16 05:03:10;;;;;;;1.30;1.02;;;-3.20;98.30;;;;;;5064826;28;20294;-74
2024/01/16 05:05:36;;;;;;;1.58;1.48;;;-3.20;98.30;;;;;;5042452;28;20423;-74
2024/01/16 05:08:04;;;;;;;1.15;1.05;;;-3.10;98.40;;;;;;5042012;28;20214;-74
2024/01/16 05:10:31;;;;;;;5.47;1.88;;;-3.10;99.90;;;;;;5049819;27;20224;-75
2024/01/16 05:12:58;;;;;;;4.00;2.38;;;-3.10;98.20;;;;;;5058077;28;20562;-74
2024/01/16 05:15:25;;;;;;;6.10;2.00;;;;;;;;;;5037422;28;20568;-74
2024/01/16 05:17:54;;;;;;;1.33;1.27;;;-3.10;98.00;;;;;;5054866;28;20210;-74
2024/01/16 05:20:21;;;;;;;1.92;1.80;;;-3.10;98.30;;;;;;5041342;28;20223;-74
2024/01/16 05:22:48;;;;;;;2.65;2.45;;;-3.10;98.30;;;;;;5057619;27;20203;-74
2024/01/16 05:25:16;;;;;;;2.28;2.17;;;-3.10;98.20;;;;;;5053795;27;20238;-74
2024/01/16 05:27:44;;;;;;;1.83;1.73;;;-3.10;98.00;;;;;;5042255;27;20201;-74
2024/01/16 05:30:11;;;;;;;5.57;2.85;;;-3.10;98.00;;;;;;5049013;28;20205;-74
2024/01/16 05:32:39;;;;;;;3.53;3.33;;;;;;;;;;5055853;27;20196;-74
2024/01/16 05:35:09;;;;;;;1.52;1.42;;;-3.00;99.90;;;;;;5045556;28;20208;-74
2024/01/16 05:37:36;;;;;;;2.65;2.45;;;-3.00;98.00;;;;;;5054819;28;20252;-74
2024/01/16 05:40:03;;;;;;;2.45;1.10;;;-3.10;97.80;;;;;;5046187;28;20201;-75
2024/01/16 05:42:30;;;;;;;1.77;1.27;;;-3.10;98.10;;;;;;5050913;28;20242;-74
2024/01/16 05:44:57;;;;;;;1.52;1.42;;;-3.20;98.00;;;;;;5049001;28;20616;-74
2024/01/16 05:47:27;;;;;;;3.92;1.50;;;-3.10;98.20;;;;;;5049495;28;20223;-72
2024/01/16 05:49:54;;;;;;;1.17;1.10;;;;;;;;;;5049251;27;20265;-71
2024/01/16 05:52:22;;;;;;;1.70;1.58;;;-3.10;97.80;;;;;;5039402;28;20888;-71
2024/01/16 05:54:48;;;;;;;1.33;1.23;;;-3.10;98.00;;;;;;5042938;28;20525;-71
2024/01/16 05:57:17;;;;;;;0.90;0.90;;;-3.20;97.90;;;;;;5048584;28;20209;-71
2024/01/16 05:59:43;;;;;;;1.58;1.42;;;-3.30;98.10;;;;;;5057401;28;20634;-72
2024/01/16 06:02:10;;;;;;;3.20;1.65;;;-3.10;98.20;;;;;;5064000;28;20203;-72
2024/01/16 06:04:37;;;;;;;3.55;1.90;;;-3.10;98.10;;;;;;5054916;28;20662;-72
2024/01/16 06:07:06;;;;;;;2.78;1.98;;;-3.00;98.00;;;;;;5057351;28;20708;-72
2024/01/16 06:09:38;;;;;;;4.05;2.65;;;-2.90;97.70;;;;;;5059985;28;20218;-76
2024/01/16 06:12:06;;;;;;;4.32;2.25;;;-2.90;97.40;;;;;;5048897;28;20308;-77
2024/01/16 06:14:33;;;;;;;2.70;2.50;;;-2.80;97.30;;;;;;5053123;27;20685;-77
2024/01/16 06:17:00;;;;;;;3.85;2.13;;;-2.90;97.20;;;;;;5053100;27;20208;-77
2024/01/16 06:19:27;;;;;;;1.60;1.42;;;-2.90;97.20;;;;;;5048722;28;20564;-78
2024/01/16 06:21:54;;;;;;;4.93;1.75;;;-2.90;97.20;;;;;;5038195;28;20569;-77
2024/01/16 06:24:21;;;;;;;1.85;1.75;;;-2.90;99.90;;;;;;5051841;28;20207;-78
2024/01/16 06:26:49;;;;;;;0.88;0.85;;;-2.90;97.00;;;;;;5047975;28;20207;-78
2024/01/16 06:29:16;;;;;;;1.48;1.10;;;-2.80;96.90;;;;;;5049769;28;20558;-78
2024/01/16 06:31:43;;;;;;;4.88;1.27;;;;;;;;;;5051812;28;20672;-78
2024/01/16 06:34:09;;;;;;;1.77;1.67;;;-2.80;96.20;;;;;;5047644;28;20212;-74
2024/01/16 06:36:37;;;;;;;2.47;2.25;;;;;;;;;;5050524;28;20200;-74
2024/01/16 06:39:03;;;;;;;0.68;0.68;;;-2.60;95.70;;;;;;5048128;28;20208;-74
2024/01/16 06:41:30;;;;;;;1.95;1.40;;;-2.80;95.80;;;;;;5045341;28;20216;-71
2024/01/16 06:43:58;;;;;;;1.70;1.60;;;-2.80;95.60;;;;;;5044088;28;20197;-73
2024/01/16 06:46:26;;;;;;;1.70;1.60;;;-2.70;96.10;;;;;;5044933;28;20751;-74
2024/01/16 06:48:53;;;;;;;1.48;1.38;;;;;;;;;;5057689;27;20587;-75
2024/01/16 06:51:20;;;;;;;4.00;1.55;;;-3.00;95.60;;;;;;5048788;28;20220;-74
2024/01/16 06:53:46;;;;;;;1.83;1.38;;;-2.70;96.20;;;;;;5047107;28;20562;-74
2024/01/16 06:56:13;;;;;;;1.70;1.60;;;-2.70;96.30;;;;;;5041747;28;20700;-74
2024/01/16 06:58:40;;;;;;;0.77;0.77;;;-2.70;96.40;;;;;;5050490;28;20229;-74
2024/01/16 07:01:10;;;;;;;0.70;0.70;;;-2.60;95.60;;;;;;5058008;28;20224;-74
2024/01/16 07:03:37;;;;;;;2.50;1.33;;;-2.70;95.60;;;;;;5067946;28;20211;-74
2024/01/16 07:06:04;;;;;;;3.30;3.15;;;-2.80;95.80;;;;;;5055391;28;20214;-74
2024/01/16 07:08:31;;;;;;;2.40;1.38;;;-2.80;95.90;;;;;;5055958;28;20211;-74
2024/01/16 07:10:58;;;;;;;1.63;1.35;;;-2.60;95.80;;;;;;5049556;28;20674;-73
2024/01/16 07:13:24;;;;;;;2.08;1.55;;;-2.70;95.50;;;;;;5057004;27;20223;-74
2024/01/16 07:15:51;;;;;;;1.40;1.40;;;-2.80;95.70;;;;;;5058248;28;20976;-73
2024/01/16 07:18:19;;;;;;;0.65;0.65;;;-2.70;96.10;;;;;;5052863;28;20208;-74
2024/01/16 07:20:46;;;;;;;1.20;0.90;;;-2.70;95.60;;;;;;5052521;28;20213;-73
2024/01/16 07:23:13;;;;;;;1.58;1.38;;;-2.70;95.60;;;;;;5060810;28;20236;-74
2024/01/16 07:25:40;;;;;;;1.58;1.20;;;;;;;;;;5061259;28;20287;-74
2024/01/16 07:28:08;;;;;;;1.65;1.50;;;-2.80;95.10;;;;;;5057843;28;20205;-74
2024/01/16 07:30:36;;;;;;;1.33;1.23;;;;;;;;;;5059964;27;20695;-74
2024/01/16 07:33:03;;;;;;;1.90;1.40;;;-2.80;94.80;;;;;;5055392;27;20237;-74
2024/01/16 07:35:31;;;;;;;4.88;1.88;;;-2.80;95.10;;;;;;5057012;28;20208;-73
2024/01/16 07:37:58;;;;;;;2.55;2.35;;;-2.80;95.70;;;;;;5055026;28;20203;-74
2024/01/16 07:40:25;;;;;;;1.38;0.77;;;-2.80;95.80;;;;;;5054802;28;20209;-74
2024/01/16 07:42:52;;;;;;;2.88;2.17;;;-2.90;96.00;;;;;;5051640;27;20208;-74
2024/01/16 07:45:19;;;;;;;0.95;0.95;;;-2.80;96.10;;;;;;5050795;28;20298;-74
2024/01/16 07:47:46;;;;;;;1.50;1.27;;;-2.70;96.00;;;;;;5050180;28;20296;-74
2024/01/16 07:50:13;;;;;;;2.05;1.52;;;;;;;;;;5056282;27;20320;-74
2024/01/16 07:52:41;;;;;;;1.15;1.13;;;-2.50;95.40;;;;;;5049797;28;20597;-73
2024/01/16 07:55:08;;;;;;;1.02;0.98;;;-2.60;95.40;;;;;;5046702;28;20565;-74
2024/01/16 07:57:34;;;;;;;2.83;2.55;;;-2.50;95.40;;;;;;5049406;28;20212;-73
2024/01/16 08:00:03;;;;;;;1.58;1.50;;;-2.50;98.80;;;;;;5051586;28;20203;-74
2024/01/16 08:02:33;;;;;;;1.98;1.13;;;-2.50;94.50;;;;;;5060355;27;20565;-74
2024/01/16 08:05:00;;;;;;;0.70;0.70;;;-2.50;94.70;;;;;;5066287;28;20204;-73
2024/01/16 08:07:28;;;;;;;2.67;1.40;;;-2.60;94.50;;;;;;5066508;28;20196;-73
2024/01/16 08:09:56;;;;;;;2.08;1.88;;;-2.40;94.40;;;;;;5064474;27;20270;-73
2024/01/16 08:12:23;;;;;;;4.20;2.35;;;;;;;;;;5057861;27;20230;-74
2024/01/16 08:14:50;;;;;;;2.08;1.10;;;-2.30;93.90;;;;;;5062447;28;20203;-74
2024/01/16 08:17:17;;;;;;;3.53;2.70;;;-2.30;94.20;;;;;;5052102;28;20575;-74
2024/01/16 08:19:44;;;;;;;2.38;2.10;;;-2.20;94.00;;;;;;5060912;27;20222;-74
2024/01/16 08:22:10;;;;;;;7.47;2.63;;;-2.30;93.70;;;;;;5058783;28;20222;-74
2024/01/16 08:24:38;;;;;;;2.25;1.42;;;-2.20;93.90;;;;;;5061425;28;20223;-74
2024/01/16 08:27:06;;;;;;;1.20;1.10;;;-2.20;94.10;;;;;;5058372;28;20774;-74
2024/01/16 08:29:33;;;;;;;2.45;1.80;;;-2.00;94.10;;;;;;5054568;28;20212;-74
2024/01/16 08:32:00;;;;;;;0.90;0.90;;;-2.00;93.70;;;;;;5045088;28;20224;-74
2024/01/16 08:34:27;;;;;;;3.75;3.28;;;-2.00;93.60;;;;;;5056717;28;20239;-74
2024/01/16 08:36:56;;;;;;;1.90;1.77;;;-1.90;93.60;;;;;;5054842;28;20283;-73
2024/01/16 08:39:23;;;;;;;1.20;1.20;;;-1.80;93.30;;;;;;5055479;28;20216;-74
2024/01/16 08:41:50;;;;;;;0.98;0.98;;;-2.00;93.20;;;;;;5054230;28;20294;-73
2024/01/16 08:44:18;;;;;;;4.28;2.47;;;-1.90;93.20;;;;;;5052962;28;20609;-74
2024/01/16 08:46:46;;;;;;;3.17;1.92;;;-2.00;93.60;;;;;;5049637;28;20200;-74
2024/01/16 08:49:13;;;;;;;1.88;1.35;;;-2.00;93.70;;;;;;5048983;27;20261;-74
2024/01/16 08:51:41;;;;;;;2.33;1.50;;;-1.90;93.70;;;;;;5058334;27;20251;-74
2024/01/16 08:54:08;;;;;;;1.38;1.38;;;-1.90;93.00;;;;;;5047652;27;20205;-74
2024/01/16 08:56:34;;;;;;;1.88;1.77;;;-1.80;93.40;;;;;;5049033;28;20720;-74
2024/01/16 08:59:01;;;;;;;1.48;1.30;;;-1.60;93.50;;;;;;5036863;28;20216;-74
2024/01/16 09:01:30;;;;;;;1.88;1.75;;;-1.60;93.50;;;;;;5050337;28;20303;-74
2024/01/16 09:03:57;;;;;;;3.20;1.48;;;-1.60;93.20;;;;;;5065905;27;20196;-74
2024/01/16 09:06:24;;;;;;;2.35;1.23;;;-1.60;93.40;;;;;;5065954;28;20203;-73
2024/01/16 09:08:50;;;;;;;4.97;2.28;;;-1.50;93.50;;;;;;5063239;28;20203;-74
2024/01/16 09:11:17;;;;;;;0.95;0.95;;;-1.50;92.80;;;;;;5063487;28;20211;-74
2024/01/16 09:13:44;;;;;;;1.35;1.25;;;-1.40;92.60;;;;;;5062862;28;20220;-74
2024/01/16 09:16:11;;;;;;;3.63;2.88;;;-1.20;93.40;;;;;;5062677;28;20689;-74
2024/01/16 09:18:39;;;;;;;1.27;1.25;;;-1.40;93.40;;;;;;5061630;27;20199;-74
2024/01/16 09:21:06;;;;;;;3.08;1.85;;;-1.40;93.20;;;;;;5052521;28;20230;-73
2024/01/16 09:23:33;;;;;;;3.05;1.50;;;-1.40;93.20;;;;;;5061138;28;20196;-73
2024/01/16 09:26:00;;;;;;;2.05;1.25;;;-1.30;93.20;;;;;;5057108;27;20212;-74
2024/01/16 09:28:28;;;;;;;1.30;1.20;;;-1.20;93.40;;;;;;5079323;27;20234;-74
2024/01/16 09:30:56;;;;;;;1.35;1.25;;;-1.10;93.30;;;;;;5053333;27;20274;-74
2024/01/16 09:33:23;;;;;;;3.97;2.20;;;-1.00;93.00;;;;;;5056522;28;20243;-74
2024/01/16 09:35:51;;;;;;;2.38;1.25;;;-0.80;93.40;;;;;;5053775;28;20570;-74
2024/01/16 09:38:17;;;;;;;1.98;1.80;;;-0.60;92.80;;;;;;5053994;28;20206;-74
2024/01/16 09:40:45;;;;;;;2.67;1.90;;;-0.60;92.10;;;;;;5050861;28;20204;-74
2024/01/16 09:43:13;;;;;;;0.93;0.90;;;-0.50;92.20;;;;;;5051619;28;20228;-74
2024/01/16 09:45:39;;;;;;;1.80;1.55;;;-0.50;92.20;;;;;;5052953;28;20218;-74
2024/01/16 09:48:08;;;;;;;2.88;1.55;;;-0.60;91.80;;;;;;5049861;28;20243;-74
2024/01/16 09:50:35;;;;;;;5.22;1.45;;;-0.60;91.30;;;;;;5057594;27;20725;-74
2024/01/16 09:53:04;;;;;;;2.60;2.00;;;-0.40;92.00;;;;;;5041839;28;20675;-74
2024/01/16 09:55:30;;;;;;;1.98;1.08;;;-0.50;91.80;;;;;;5045679;28;20212;-74
2024/01/16 09:57:58;;;;;;;2.45;2.25;;;-0.50;91.60;;;;;;5040462;28;20268;-74
2024/01/16 10:00:25;;;;;;;2.05;1.15;;;-0.40;91.60;;;;;;5042134;28;20291;-75
2024/01/16 10:02:58;;;;;;;2.53;1.40;;;-0.40;91.30;;;;;;5055282;28;20207;-75
2024/01/16 10:05:25;;;;;;;1.42;1.33;;;-0.30;92.30;;;;;;5065545;27;20544;-75
2024/01/16 10:07:53;;;;;;;3.97;1.25;;;-0.20;91.70;;;;;;5050232;28;20707;-75
2024/01/16 10:10:22;;;;;;;1.08;1.05;;;-0.10;91.40;;;;;;5055615;27;20558;-75
2024/01/16 10:12:50;;;;;;;0.70;0.70;;;-0.10;91.40;;;;;;5057732;28;20686;-72
2024/01/16 10:15:20;;;;;;;3.80;1.20;;;0.00;91.60;;;;;;5063013;27;20203;-72
2024/01/16 10:17:47;;;;;;;3.85;1.85;;;0.10;91.50;;;;;;5053022;28;20212;-73
2024/01/16 10:20:16;;;;;;;3.42;2.15;;;0.10;91.00;;;;;;5045154;28;20216;-73
2024/01/16 10:22:53;;;;;;;1.52;1.30;;;0.10;91.20;;;;;;5061287;27;20203;-73
2024/01/16 10:25:22;;;;;;;2.40;2.15;;;0.30;91.00;;;;;;5063503;28;20207;-73
2024/01/16 10:27:50;;;;;;;1.40;1.30;;;0.30;91.00;;;;;;5059382;27;20329;-73
2024/01/16 10:30:23;;;;;;;1.85;1.15;;;0.40;90.70;;;;;;5060941;28;20206;-73
2024/01/16 10:32:49;;;;;;;2.55;1.67;;;0.50;91.60;;;;;;5059137;28;20219;-74
2024/01/16 10:35:16;;;;;;;2.85;1.80;;;0.60;90.70;;;;;;5056549;28;20226;-74
2024/01/16 10:37:44;;;;;;;2.22;2.08;;;0.70;91.20;;;;;;5055752;27;20199;-74
2024/01/16 10:40:15;;;;;;;1.70;1.45;;;0.60;90.00;;;;;;5056308;28;20611;-74
2024/01/16 10:42:43;;;;;;;4.30;2.15;;;0.60;90.70;;;;;;5051894;28;20287;-74
2024/01/16 10:45:17;;;;;;;1.40;1.30;;;0.70;90.60;;;;;;5054259;28;20847;-74
2024/01/16 10:47:43;;;;;;;1.45;1.35;;;0.80;90.00;;;;;;5038983;28;20215;-74
2024/01/16 10:50:10;;;;;;;1.48;1.30;;;0.70;89.50;;;;;;5058969;27;20215;-74
2024/01/16 10:52:45;;;;;;;1.83;1.73;;;0.70;90.40;;;;;;5052870;28;20227;-74
2024/01/16 10:55:15;;;;;;;1.83;1.60;;;0.70;90.20;;;;;;5048953;28;20299;-74
2024/01/16 10:57:44;;;;;;;1.15;1.05;;;0.90;89.50;;;;;;5045497;28;20319;-74
2024/01/16 11:00:14;;;;;;;2.60;1.63;;;1.00;89.50;;;;;;5050339;28;20207;-74
2024/01/16 11:02:52;;;;;;;2.17;1.85;;;1.00;89.90;;;;;;5057261;28;20252;-74
2024/01/16 11:05:21;;;;;;;8.13;2.55;;;1.00;88.50;;;;;;5068872;28;20227;-74
2024/01/16 11:07:48;;;;;;;5.20;1.55;;;0.90;88.00;;;;;;5055273;28;20213;-72
2024/01/16 11:10:15;;;;;;;1.67;1.45;;;0.80;88.60;;;;;;5067176;28;20204;-72
2024/01/16 11:12:46;;;;;;;1.30;1.20;;;0.60;89.40;;;;;;5065522;27;20233;-73
2024/01/16 11:15:13;;;;;;;3.35;1.30;;;0.70;90.70;;;;;;5065213;28;20703;-73
2024/01/16 11:17:41;;;;;;;2.38;1.48;;;0.80;89.40;;;;;;5052900;28;20207;-73
2024/01/16 11:20:13;;;;;;;6.38;1.92;;;0.70;90.20;;;;;;5063061;28;20212;-73
2024/01/16 11:22:42;;;;;;;2.88;1.30;;;0.70;90.50;;;;;;5062761;27;20207;-73
2024/01/16 11:25:10;;;;;;;5.47;1.92;;;0.60;89.80;;;;;;5060725;28;20211;-73
2024/01/16 11:27:37;;;;;;;2.75;1.10;;;0.60;89.70;;;;;;5060126;28;20207;-73
2024/01/16 11:30:07;;;;;;;1.27;1.17;;;0.60;88.80;;;;;;5058182;28;20204;-73
2024/01/16 11:32:36;;;;;;;0.95;0.85;;;0.60;89.30;;;;;;5052617;28;20702;-73
2024/01/16 11:35:04;;;;;;;0.98;0.98;;;0.80;93.20;;;;;;5049306;28;20204;-73
2024/01/16 11:37:32;;;;;;;3.75;1.80;;;0.70;89.00;;;;;;5055712;28;20688;-73
2024/01/16 11:40:21;;;;;;;1.15;1.05;;;0.80;88.10;;;;;;5055435;28;20670;-73
2024/01/16 11:42:49;;;;;;;1.40;1.15;;;0.80;87.20;;;;;;5051685;28;20248;-73
2024/01/16 11:45:51;;;;;;;0.88;0.82;;;0.70;88.50;;;;;;5053812;27;20207;-73
2024/01/16 11:48:19;;;;;;;1.65;1.55;;;0.90;87.80;;;;;;5045470;28;20212;-73
2024/01/16 11:50:46;;;;;;;2.28;1.92;;;0.80;88.00;;;;;;5060162;27;20214;-73
2024/01/16 11:53:32;;;;;;;1.05;0.95;;;0.90;87.30;;;;;;5050669;28;20616;-73
2024/01/16 11:56:14;;;;;;;2.35;1.27;;;0.90;86.10;;;;;;5049460;28;20208;-73
2024/01/16 11:58:49;;;;;;;1.10;1.00;;;0.90;85.70;;;;;;5045903;28;20546;-74
2024/01/16 12:01:20;;;;;;;3.67;2.03;;;0.80;87.20;;;;;;5044322;28;20196;-73
2024/01/16 12:03:46;;;;;;;1.50;0.90;;;0.80;87.80;;;;;;5058092;28;20206;-73
2024/01/16 12:06:17;;;;;;;2.03;1.27;;;0.80;87.40;;;;;;5067808;27;20563;-74
2024/01/16 12:08:44;;;;;;;2.13;2.00;;;0.90;87.80;;;;;;5056436;28;20295;-73
2024/01/16 12:11:11;;;;;;;4.65;2.25;;;0.90;86.80;;;;;;5065440;27;20196;-74
2024/01/16 12:13:37;;;;;;;2.15;0.90;;;0.80;84.90;;;;;;5064641;28;20299;-73
2024/01/16 12:16:05;;;;;;;1.50;1.40;;;0.70;84.70;;;;;;5062829;28;20216;-73
2024/01/16 12:18:33;;;;;;;1.05;0.80;;;0.80;85.80;;;;;;5054767;28;20564;-73
2024/01/16 12:21:09;;;;;;;1.50;1.30;;;0.90;85.40;;;;;;5059924;27;20206;-73
2024/01/16 12:23:36;;;;;;;1.50;1.20;;;1.00;85.20;;;;;;5062411;28;20203;-73
2024/01/16 12:26:03;;;;;;;1.25;1.05;;;1.00;85.20;;;;;;5054806;28;20292;-74
2024/01/16 12:28:31;;;;;;;1.05;0.90;;;0.90;83.60;;;;;;5049387;28;20228;-73
2024/01/16 12:30:57;;;;;;;2.35;1.00;;;1.00;84.00;;;;;;5057035;27;20272;-73
2024/01/16 12:33:24;;;;;;;1.10;1.00;;;0.90;84.80;;;;;;5057958;28;20218;-74
2024/01/16 12:36:02;;;;;;;1.55;1.42;;;0.90;83.30;;;;;;5054998;28;20206;-73
2024/01/16 12:38:29;;;;;;;1.30;0.93;;;1.00;83.60;;;;;;5055885;28;20200;-73
2024/01/16 12:40:56;;;;;;;1.10;0.93;;;1.10;82.30;;;;;;5054515;28;20294;-73
2024/01/16 12:43:23;;;;;;;2.00;1.50;;;1.00;83.30;;;;;;5053552;28;20228;-73
2024/01/16 12:45:56;;;;;;;1.65;1.55;;;0.90;83.00;;;;;;5053964;28;20314;-73
2024/01/16 12:48:24;;;;;;;2.33;1.60;;;0.90;84.50;;;;;;5049991;28;20244;-73
2024/01/16 12:50:59;;;;;;;2.15;1.98;;;1.00;84.20;;;;;;5056885;27;20587;-73
2024/01/16 12:53:26;;;;;;;2.45;2.13;;;1.00;83.50;;;;;;5048680;28;20317;-73
2024/01/16 12:55:59;;;;;;;7.90;1.80;;;1.00;83.10;;;;;;5050001;28;20196;-73